PWSweather.com
Personal Weather Stations
Station Observations
728536
Kristiansand, FlekkeroyNO 4625

KristiansandFlekkeroyNO 4625

Lat: 58.0860587, Lon: 8.0151742

Elevation: 36

Station Type: Davis Vantage Pro2

http://www.paulen.no

High Low Average
Temperature 45.9°F7.7°C 38.6°F3.7°C 42.2°F5.7°C
Dew Point 42.5°F5.8°C 26.2°F-3.2°C 35.3°F1.8°C
Winds 26.5 mph 42.6 kmh 1.2 mph 1.9 kmh 9.0 mph WSW14.5 kmh WSW
Wind Gusts 36.8 mph59.2 kmh 3.5 mph5.6 kmh 14.0 mph22.5 kmh
Humidity 93% 59% 77%
Pressure 29.78 in1008.5 mb 28.84 in976.6 mb -
Precipitation 0.06 in1.5 mm - -
Hour Temp Dew Point Humidity Winds Wind Gusts Pressure Precip Precip Rate Daily Precip Total
12:00 AM 43.8°F6.6°C 40.8°F4.9°C 89% 8.1 mph NW13.0 kmh NW 19.6 mph31.5 kmh 28.85 in977.0 mb - 0.01 in0.3 mm 0.01 in0.3 mm
12:10 AM 42.9°F6.1°C 40.7°F4.8°C 92% 5.8 mph W9.3 kmh W 11.5 mph18.5 kmh 28.85 in977.0 mb - 0.02 in0.5 mm 0.02 in0.5 mm
12:20 AM 42.6°F5.9°C 40.7°F4.8°C 93% 4.6 mph NW7.4 kmh NW 6.9 mph11.1 kmh 28.84 in976.6 mb - 0.02 in0.5 mm 0.02 in0.5 mm
12:30 AM 42.8°F6.0°C 40.6°F4.8°C 92% 6.9 mph NW11.1 kmh NW 10.4 mph16.7 kmh 28.84 in976.6 mb - 0.02 in0.5 mm 0.02 in0.5 mm
12:40 AM 43.2°F6.2°C 41.0°F5.0°C 92% 6.9 mph NNW11.1 kmh NNW 11.5 mph18.5 kmh 28.84 in976.6 mb - 0.02 in0.5 mm 0.02 in0.5 mm
12:50 AM 43.8°F6.6°C 41.3°F5.2°C 91% 3.5 mph NW5.6 kmh NW 9.2 mph14.8 kmh 28.84 in976.6 mb - 0.02 in0.5 mm 0.02 in0.5 mm
01:00 AM 44.3°F6.8°C 41.5°F5.3°C 90% 6.9 mph NW11.1 kmh NW 11.5 mph18.5 kmh 28.84 in976.6 mb - 0.02 in0.5 mm 0.02 in0.5 mm
01:10 AM 44.9°F7.2°C 41.9°F5.5°C 89% 6.9 mph NW11.1 kmh NW 15.0 mph24.1 kmh 28.84 in976.6 mb - 0.00 in0.0 mm 0.02 in0.5 mm
01:20 AM 45.7°F7.6°C 42.3°F5.7°C 88% 8.1 mph WNW13.0 kmh WNW 19.6 mph31.5 kmh 28.84 in976.6 mb - 0.00 in0.0 mm 0.02 in0.5 mm
01:30 AM 45.4°F7.4°C 42.1°F5.6°C 88% 5.8 mph NW9.3 kmh NW 10.4 mph16.7 kmh 28.84 in976.6 mb - 0.00 in0.0 mm 0.02 in0.5 mm
01:40 AM 45.2°F7.3°C 41.9°F5.5°C 88% 5.8 mph NNW9.3 kmh NNW 19.6 mph31.5 kmh 28.84 in976.6 mb - 0.00 in0.0 mm 0.02 in0.5 mm
01:50 AM 45.3°F7.4°C 41.7°F5.4°C 87% 5.8 mph WNW9.3 kmh WNW 10.4 mph16.7 kmh 28.84 in976.6 mb - 0.00 in0.0 mm 0.02 in0.5 mm
02:00 AM 45.7°F7.6°C 42.0°F5.6°C 87% 4.6 mph WNW7.4 kmh WNW 11.5 mph18.5 kmh 28.84 in976.6 mb - 0.00 in0.0 mm 0.02 in0.5 mm
02:10 AM 45.6°F7.6°C 41.4°F5.2°C 85% 8.1 mph NW13.0 kmh NW 13.8 mph22.2 kmh 28.84 in976.6 mb - 0.00 in0.0 mm 0.02 in0.5 mm
02:20 AM 45.3°F7.4°C 41.0°F5.0°C 85% 4.6 mph NNW7.4 kmh NNW 11.5 mph18.5 kmh 28.85 in977.0 mb - 0.00 in0.0 mm 0.02 in0.5 mm
02:30 AM 45.5°F7.5°C 41.5°F5.3°C 86% 6.9 mph WNW11.1 kmh WNW 15.0 mph24.1 kmh 28.85 in977.0 mb - 0.00 in0.0 mm 0.02 in0.5 mm
02:40 AM 45.8°F7.7°C 41.5°F5.3°C 85% 6.9 mph WNW11.1 kmh WNW 15.0 mph24.1 kmh 28.85 in977.0 mb - 0.00 in0.0 mm 0.02 in0.5 mm
02:50 AM 45.8°F7.7°C 41.5°F5.3°C 85% 6.9 mph N11.1 kmh N 18.4 mph29.6 kmh 28.85 in977.0 mb - 0.00 in0.0 mm 0.02 in0.5 mm
03:00 AM 45.6°F7.6°C 41.0°F5.0°C 84% 6.9 mph NW11.1 kmh NW 20.7 mph33.3 kmh 28.86 in977.3 mb - 0.00 in0.0 mm 0.02 in0.5 mm
03:10 AM 45.5°F7.5°C 41.3°F5.2°C 85% 6.9 mph W11.1 kmh W 12.7 mph20.4 kmh 28.86 in977.3 mb - 0.00 in0.0 mm 0.02 in0.5 mm
03:20 AM 45.4°F7.4°C 41.5°F5.3°C 86% 4.6 mph WNW7.4 kmh WNW 11.5 mph18.5 kmh 28.85 in977.0 mb - 0.00 in0.0 mm 0.02 in0.5 mm
03:30 AM 45.5°F7.5°C 41.5°F5.3°C 86% 4.6 mph NW7.4 kmh NW 6.9 mph11.1 kmh 28.86 in977.3 mb - 0.00 in0.0 mm 0.02 in0.5 mm
03:40 AM 45.9°F7.7°C 41.6°F5.3°C 85% 5.8 mph NW9.3 kmh NW 16.1 mph25.9 kmh 28.86 in977.3 mb - 0.00 in0.0 mm 0.02 in0.5 mm
03:50 AM 44.9°F7.2°C 41.5°F5.3°C 88% 8.1 mph WSW13.0 kmh WSW 12.7 mph20.4 kmh 28.86 in977.3 mb - 0.01 in0.3 mm 0.02 in0.5 mm
04:00 AM 44.2°F6.8°C 41.7°F5.4°C 91% 4.6 mph WSW7.4 kmh WSW 9.2 mph14.8 kmh 28.86 in977.3 mb - 0.02 in0.5 mm 0.03 in0.8 mm
04:10 AM 44.5°F6.9°C 42.1°F5.6°C 91% 4.6 mph WNW7.4 kmh WNW 13.8 mph22.2 kmh 28.87 in977.7 mb - 0.02 in0.5 mm 0.03 in0.8 mm
04:20 AM 45.2°F7.3°C 42.4°F5.8°C 90% 6.9 mph NNW11.1 kmh NNW 11.5 mph18.5 kmh 28.87 in977.7 mb - 0.02 in0.5 mm 0.03 in0.8 mm
04:30 AM 45.3°F7.4°C 42.0°F5.6°C 88% 9.2 mph NW14.8 kmh NW 17.3 mph27.8 kmh 28.87 in977.7 mb - 0.02 in0.5 mm 0.03 in0.8 mm
04:40 AM 45.3°F7.4°C 42.0°F5.6°C 88% 5.8 mph NNW9.3 kmh NNW 13.8 mph22.2 kmh 28.86 in977.3 mb - 0.02 in0.5 mm 0.03 in0.8 mm
04:50 AM 45.4°F7.4°C 41.4°F5.2°C 86% 8.1 mph WNW13.0 kmh WNW 12.7 mph20.4 kmh 28.86 in977.3 mb - 0.01 in0.3 mm 0.03 in0.8 mm
05:00 AM 45.1°F7.3°C 40.8°F4.9°C 85% 4.6 mph NW7.4 kmh NW 11.5 mph18.5 kmh 28.87 in977.7 mb - 0.00 in0.0 mm 0.03 in0.8 mm
05:10 AM 44.9°F7.2°C 41.3°F5.2°C 87% 4.6 mph NW7.4 kmh NW 6.9 mph11.1 kmh 28.86 in977.3 mb - 0.00 in0.0 mm 0.03 in0.8 mm
05:20 AM 44.8°F7.1°C 41.2°F5.1°C 87% 8.1 mph NW13.0 kmh NW 17.3 mph27.8 kmh 28.86 in977.3 mb - 0.00 in0.0 mm 0.03 in0.8 mm
05:30 AM 45.1°F7.3°C 41.8°F5.4°C 88% 6.9 mph NW11.1 kmh NW 11.5 mph18.5 kmh 28.87 in977.7 mb - 0.00 in0.0 mm 0.03 in0.8 mm
05:40 AM 45.5°F7.5°C 42.4°F5.8°C 89% 5.8 mph NW9.3 kmh NW 15.0 mph24.1 kmh 28.87 in977.7 mb - 0.00 in0.0 mm 0.03 in0.8 mm
05:50 AM 45.1°F7.3°C 42.3°F5.7°C 90% 4.6 mph NW7.4 kmh NW 13.8 mph22.2 kmh 28.87 in977.7 mb - 0.00 in0.0 mm 0.03 in0.8 mm
06:00 AM 45.2°F7.3°C 42.5°F5.8°C 90% 6.9 mph NW11.1 kmh NW 10.4 mph16.7 kmh 28.87 in977.7 mb - 0.00 in0.0 mm 0.03 in0.8 mm
06:10 AM 43.4°F6.3°C 40.9°F4.9°C 91% 4.6 mph NW7.4 kmh NW 9.2 mph14.8 kmh 28.88 in978.0 mb - 0.02 in0.5 mm 0.05 in1.3 mm
06:20 AM 42.8°F6.0°C 40.4°F4.7°C 91% 4.6 mph NW7.4 kmh NW 6.9 mph11.1 kmh 28.88 in978.0 mb - 0.02 in0.5 mm 0.05 in1.3 mm
06:30 AM 42.7°F5.9°C 40.3°F4.6°C 91% 2.3 mph NW3.7 kmh NW 9.2 mph14.8 kmh 28.88 in978.0 mb - 0.02 in0.5 mm 0.05 in1.3 mm
06:40 AM 42.9°F6.1°C 40.7°F4.8°C 92% 3.5 mph WNW5.6 kmh WNW 8.1 mph13.0 kmh 28.88 in978.0 mb - 0.02 in0.5 mm 0.05 in1.3 mm
06:50 AM 43.0°F6.1°C 41.1°F5.1°C 93% 1.2 mph W1.9 kmh W 4.6 mph7.4 kmh 28.88 in978.0 mb - 0.02 in0.5 mm 0.06 in1.5 mm
07:00 AM 42.9°F6.1°C 41.0°F5.0°C 93% 1.2 mph WSW1.9 kmh WSW 3.5 mph5.6 kmh 28.88 in978.0 mb - 0.02 in0.5 mm 0.06 in1.5 mm
07:10 AM 42.9°F6.1°C 41.0°F5.0°C 93% 4.6 mph NW7.4 kmh NW 8.1 mph13.0 kmh 28.88 in978.0 mb - 0.01 in0.3 mm 0.06 in1.5 mm
07:20 AM 42.8°F6.0°C 41.0°F5.0°C 93% 4.6 mph WNW7.4 kmh WNW 8.1 mph13.0 kmh 28.88 in978.0 mb - 0.01 in0.3 mm 0.06 in1.5 mm
07:30 AM 42.8°F6.0°C 40.9°F4.9°C 93% 3.5 mph WNW5.6 kmh WNW 8.1 mph13.0 kmh 28.89 in978.3 mb - 0.01 in0.3 mm 0.06 in1.5 mm
07:40 AM 42.5°F5.8°C 40.3°F4.6°C 92% 4.6 mph NW7.4 kmh NW 9.2 mph14.8 kmh 28.89 in978.3 mb - 0.01 in0.3 mm 0.06 in1.5 mm
07:50 AM 42.4°F5.8°C 40.2°F4.6°C 92% 4.6 mph NW7.4 kmh NW 11.5 mph18.5 kmh 28.89 in978.3 mb - 0.01 in0.3 mm 0.06 in1.5 mm
08:00 AM 42.4°F5.8°C 40.3°F4.6°C 92% 3.5 mph NW5.6 kmh NW 6.9 mph11.1 kmh 28.90 in978.7 mb - 0.00 in0.0 mm 0.06 in1.5 mm
08:10 AM 42.1°F5.6°C 39.7°F4.3°C 91% 2.3 mph WNW3.7 kmh WNW 9.2 mph14.8 kmh 28.90 in978.7 mb - 0.00 in0.0 mm 0.06 in1.5 mm
08:20 AM 41.9°F5.5°C 39.5°F4.2°C 91% 2.3 mph W3.7 kmh W 8.1 mph13.0 kmh 28.91 in979.0 mb - 0.00 in0.0 mm 0.06 in1.5 mm
08:30 AM 42.0°F5.6°C 39.3°F4.1°C 90% 2.3 mph WNW3.7 kmh WNW 5.8 mph9.3 kmh 28.91 in979.0 mb - 0.00 in0.0 mm 0.06 in1.5 mm
08:40 AM 41.9°F5.5°C 39.2°F4.0°C 90% 3.5 mph WNW5.6 kmh WNW 6.9 mph11.1 kmh 28.91 in979.0 mb - 0.00 in0.0 mm 0.06 in1.5 mm
08:50 AM 42.0°F5.6°C 39.0°F3.9°C 89% 3.5 mph WNW5.6 kmh WNW 5.8 mph9.3 kmh 28.91 in979.0 mb - 0.00 in0.0 mm 0.06 in1.5 mm
09:00 AM 42.2°F5.7°C 38.9°F3.8°C 88% 5.8 mph WNW9.3 kmh WNW 15.0 mph24.1 kmh 28.91 in979.0 mb - 0.00 in0.0 mm 0.06 in1.5 mm
09:10 AM 42.3°F5.7°C 39.0°F3.9°C 88% 3.5 mph NW5.6 kmh NW 9.2 mph14.8 kmh 28.90 in978.7 mb - 0.00 in0.0 mm 0.06 in1.5 mm
09:20 AM 42.3°F5.7°C 39.0°F3.9°C 88% 5.8 mph NW9.3 kmh NW 13.8 mph22.2 kmh 28.90 in978.7 mb - 0.00 in0.0 mm 0.06 in1.5 mm
09:30 AM 42.2°F5.7°C 38.6°F3.7°C 87% 5.8 mph NW9.3 kmh NW 9.2 mph14.8 kmh 28.91 in979.0 mb - 0.00 in0.0 mm 0.06 in1.5 mm
09:40 AM 42.1°F5.6°C 38.2°F3.4°C 86% 4.6 mph NW7.4 kmh NW 9.2 mph14.8 kmh 28.91 in979.0 mb - 0.00 in0.0 mm 0.06 in1.5 mm
09:50 AM 42.0°F5.6°C 38.1°F3.4°C 86% 5.8 mph NW9.3 kmh NW 11.5 mph18.5 kmh 28.91 in979.0 mb - 0.00 in0.0 mm 0.06 in1.5 mm
10:00 AM 41.9°F5.5°C 38.0°F3.3°C 86% 4.6 mph NW7.4 kmh NW 9.2 mph14.8 kmh 28.91 in979.0 mb - 0.00 in0.0 mm 0.06 in1.5 mm
10:10 AM 41.9°F5.5°C 38.0°F3.3°C 86% 4.6 mph NW7.4 kmh NW 9.2 mph14.8 kmh 28.92 in979.3 mb - 0.00 in0.0 mm 0.06 in1.5 mm
10:20 AM 41.9°F5.5°C 37.7°F3.2°C 85% 6.9 mph WNW11.1 kmh WNW 16.1 mph25.9 kmh 28.92 in979.3 mb - 0.00 in0.0 mm 0.06 in1.5 mm
10:30 AM 41.8°F5.4°C 37.6°F3.1°C 85% 5.8 mph WNW9.3 kmh WNW 9.2 mph14.8 kmh 28.92 in979.3 mb - 0.00 in0.0 mm 0.06 in1.5 mm
10:40 AM 42.0°F5.6°C 37.8°F3.2°C 85% 6.9 mph NW11.1 kmh NW 16.1 mph25.9 kmh 28.93 in979.7 mb - 0.00 in0.0 mm 0.06 in1.5 mm
10:50 AM 42.1°F5.6°C 37.3°F2.9°C 83% 5.8 mph NW9.3 kmh NW 16.1 mph25.9 kmh 28.93 in979.7 mb - 0.00 in0.0 mm 0.06 in1.5 mm
11:00 AM 42.4°F5.8°C 37.3°F2.9°C 82% 6.9 mph W11.1 kmh W 9.2 mph14.8 kmh 28.94 in980.0 mb - 0.00 in0.0 mm 0.06 in1.5 mm
11:10 AM 42.6°F5.9°C 37.5°F3.1°C 82% 3.5 mph NW5.6 kmh NW 6.9 mph11.1 kmh 28.95 in980.4 mb - 0.00 in0.0 mm 0.06 in1.5 mm
11:20 AM 42.6°F5.9°C 36.9°F2.7°C 80% 4.6 mph NW7.4 kmh NW 15.0 mph24.1 kmh 28.95 in980.4 mb - 0.00 in0.0 mm 0.06 in1.5 mm
11:30 AM 43.0°F6.1°C 36.6°F2.6°C 78% 4.6 mph NW7.4 kmh NW 10.4 mph16.7 kmh 28.96 in980.7 mb - 0.00 in0.0 mm 0.06 in1.5 mm
11:40 AM 43.1°F6.2°C 36.4°F2.4°C 77% 10.4 mph NW16.7 kmh NW 12.7 mph20.4 kmh 28.96 in980.7 mb - 0.00 in0.0 mm 0.06 in1.5 mm
11:50 AM 43.1°F6.2°C 36.0°F2.2°C 76% 9.2 mph NW14.8 kmh NW 11.5 mph18.5 kmh 28.96 in980.7 mb - 0.00 in0.0 mm 0.06 in1.5 mm
12:00 PM 43.3°F6.3°C 35.9°F2.2°C 75% 12.7 mph NNW20.4 kmh NNW 24.2 mph38.9 kmh 28.97 in981.0 mb - 0.00 in0.0 mm 0.06 in1.5 mm
12:10 PM 43.3°F6.3°C 35.6°F2.0°C 74% 12.7 mph NNW20.4 kmh NNW 19.6 mph31.5 kmh 28.97 in981.0 mb - 0.00 in0.0 mm 0.06 in1.5 mm
12:20 PM 43.5°F6.4°C 35.4°F1.9°C 73% 10.4 mph NNW16.7 kmh NNW 15.0 mph24.1 kmh 28.98 in981.4 mb - 0.00 in0.0 mm 0.06 in1.5 mm
12:30 PM 43.6°F6.4°C 35.2°F1.8°C 72% 15.0 mph N24.1 kmh N 21.9 mph35.2 kmh 28.99 in981.7 mb - 0.00 in0.0 mm 0.06 in1.5 mm
12:40 PM 43.6°F6.4°C 35.2°F1.8°C 72% 16.1 mph NNW25.9 kmh NNW 25.3 mph40.7 kmh 29.00 in982.1 mb - 0.00 in0.0 mm 0.06 in1.5 mm
12:50 PM 43.5°F6.4°C 35.1°F1.7°C 72% 17.3 mph NNW27.8 kmh NNW 23.0 mph37.0 kmh 29.01 in982.4 mb - 0.00 in0.0 mm 0.06 in1.5 mm
01:00 PM 43.6°F6.4°C 35.2°F1.8°C 72% 12.7 mph NNW20.4 kmh NNW 17.3 mph27.8 kmh 29.02 in982.7 mb - 0.00 in0.0 mm 0.06 in1.5 mm
01:10 PM 43.8°F6.6°C 34.7°F1.5°C 70% 17.3 mph NNW27.8 kmh NNW 20.7 mph33.3 kmh 29.03 in983.1 mb - 0.00 in0.0 mm 0.06 in1.5 mm
01:20 PM 44.0°F6.7°C 34.5°F1.4°C 69% 18.4 mph NNW29.6 kmh NNW 23.0 mph37.0 kmh 29.04 in983.4 mb - 0.00 in0.0 mm 0.06 in1.5 mm
01:30 PM 44.2°F6.8°C 34.3°F1.3°C 68% 21.9 mph N35.2 kmh N 26.5 mph42.6 kmh 29.05 in983.7 mb - 0.00 in0.0 mm 0.06 in1.5 mm
01:40 PM 44.4°F6.9°C 34.9°F1.6°C 69% 18.4 mph N29.6 kmh N 19.6 mph31.5 kmh 29.07 in984.4 mb - 0.00 in0.0 mm 0.06 in1.5 mm
01:50 PM 44.5°F6.9°C 34.5°F1.4°C 68% 19.6 mph N31.5 kmh N 25.3 mph40.7 kmh 29.09 in985.1 mb - 0.00 in0.0 mm 0.06 in1.5 mm
02:00 PM 44.5°F6.9°C 33.8°F1.0°C 66% 26.5 mph N42.6 kmh N 31.1 mph50.1 kmh 29.11 in985.8 mb - 0.00 in0.0 mm 0.06 in1.5 mm
02:10 PM 44.4°F6.9°C 34.9°F1.6°C 69% 16.1 mph N25.9 kmh N 25.3 mph40.7 kmh 29.13 in986.5 mb - 0.00 in0.0 mm 0.06 in1.5 mm
02:20 PM 43.3°F6.3°C 35.2°F1.8°C 73% 21.9 mph NNE35.2 kmh NNE 36.8 mph59.2 kmh 29.15 in987.1 mb - 0.00 in0.0 mm 0.06 in1.5 mm
02:30 PM 41.7°F5.4°C 35.3°F1.8°C 78% 21.9 mph NNE35.2 kmh NNE 25.3 mph40.7 kmh 29.18 in988.1 mb - 0.00 in0.0 mm 0.06 in1.5 mm
02:40 PM 40.9°F4.9°C 36.2°F2.3°C 83% 16.1 mph NNE25.9 kmh NNE 21.9 mph35.2 kmh 29.20 in988.8 mb - 0.00 in0.0 mm 0.06 in1.5 mm
02:50 PM 40.0°F4.4°C 34.9°F1.6°C 82% 25.3 mph NNE40.7 kmh NNE 32.2 mph51.8 kmh 29.21 in989.2 mb - 0.00 in0.0 mm 0.06 in1.5 mm
03:00 PM 39.8°F4.3°C 35.4°F1.9°C 84% 15.0 mph NNE24.1 kmh NNE 25.3 mph40.7 kmh 29.24 in990.2 mb - 0.00 in0.0 mm 0.06 in1.5 mm
03:10 PM 40.0°F4.4°C 35.0°F1.7°C 82% 12.7 mph NNE20.4 kmh NNE 17.3 mph27.8 kmh 29.25 in990.5 mb - 0.00 in0.0 mm 0.06 in1.5 mm
03:20 PM 40.1°F4.5°C 34.7°F1.5°C 81% 9.2 mph NNE14.8 kmh NNE 13.8 mph22.2 kmh 29.26 in990.9 mb - 0.00 in0.0 mm 0.06 in1.5 mm
03:30 PM 40.8°F4.9°C 33.5°F0.8°C 75% 10.4 mph NNE16.7 kmh NNE 17.3 mph27.8 kmh 29.28 in991.5 mb - 0.00 in0.0 mm 0.06 in1.5 mm
03:40 PM 41.5°F5.3°C 31.7°F-0.2°C 68% 19.6 mph NNE31.5 kmh NNE 26.5 mph42.6 kmh 29.30 in992.2 mb - 0.00 in0.0 mm 0.06 in1.5 mm
03:50 PM 41.6°F5.3°C 32.1°F0.1°C 69% 18.4 mph NNE29.6 kmh NNE 25.3 mph40.7 kmh 29.31 in992.6 mb - 0.00 in0.0 mm 0.06 in1.5 mm
04:00 PM 41.4°F5.2°C 32.0°F0.0°C 69% 12.7 mph NNE20.4 kmh NNE 16.1 mph25.9 kmh 29.33 in993.2 mb - 0.00 in0.0 mm 0.06 in1.5 mm
04:10 PM 41.1°F5.1°C 31.7°F-0.2°C 69% 10.4 mph N16.7 kmh N 12.7 mph20.4 kmh 29.34 in993.6 mb - 0.00 in0.0 mm 0.06 in1.5 mm
04:20 PM 41.0°F5.0°C 32.0°F0.0°C 70% 10.4 mph NNE16.7 kmh NNE 11.5 mph18.5 kmh 29.36 in994.2 mb - 0.00 in0.0 mm 0.06 in1.5 mm
04:30 PM 40.8°F4.9°C 32.5°F0.3°C 72% 10.4 mph N16.7 kmh N 13.8 mph22.2 kmh 29.37 in994.6 mb - 0.00 in0.0 mm 0.06 in1.5 mm
04:40 PM 40.5°F4.7°C 31.1°F-0.5°C 69% 9.2 mph N14.8 kmh N 11.5 mph18.5 kmh 29.38 in994.9 mb - 0.00 in0.0 mm 0.06 in1.5 mm
04:50 PM 40.3°F4.6°C 30.6°F-0.8°C 68% 8.1 mph NNW13.0 kmh NNW 11.5 mph18.5 kmh 29.39 in995.3 mb - 0.00 in0.0 mm 0.06 in1.5 mm
05:00 PM 39.8°F4.3°C 29.4°F-1.4°C 66% 5.8 mph NNW9.3 kmh NNW 9.2 mph14.8 kmh 29.40 in995.6 mb - 0.00 in0.0 mm 0.06 in1.5 mm
05:10 PM 39.8°F4.3°C 28.9°F-1.7°C 65% 6.9 mph NNW11.1 kmh NNW 9.2 mph14.8 kmh 29.41 in995.9 mb - 0.00 in0.0 mm 0.06 in1.5 mm
05:20 PM 39.7°F4.3°C 28.5°F-1.9°C 64% 5.8 mph NW9.3 kmh NW 10.4 mph16.7 kmh 29.42 in996.3 mb - 0.00 in0.0 mm 0.06 in1.5 mm
05:30 PM 39.4°F4.1°C 28.2°F-2.1°C 64% 4.6 mph NW7.4 kmh NW 8.1 mph13.0 kmh 29.43 in996.6 mb - 0.00 in0.0 mm 0.06 in1.5 mm
05:40 PM 39.4°F4.1°C 28.6°F-1.9°C 65% 5.8 mph N9.3 kmh N 9.2 mph14.8 kmh 29.44 in997.0 mb - 0.00 in0.0 mm 0.06 in1.5 mm
05:50 PM 39.6°F4.2°C 29.2°F-1.6°C 66% 6.9 mph N11.1 kmh N 9.2 mph14.8 kmh 29.45 in997.3 mb - 0.00 in0.0 mm 0.06 in1.5 mm
06:00 PM 39.9°F4.4°C 29.5°F-1.4°C 66% 10.4 mph N16.7 kmh N 12.7 mph20.4 kmh 29.46 in997.6 mb - 0.00 in0.0 mm 0.06 in1.5 mm
06:10 PM 39.9°F4.4°C 28.7°F-1.8°C 64% 10.4 mph N16.7 kmh N 12.7 mph20.4 kmh 29.48 in998.3 mb - 0.00 in0.0 mm 0.06 in1.5 mm
06:20 PM 39.7°F4.3°C 27.7°F-2.4°C 62% 9.2 mph NNW14.8 kmh NNW 11.5 mph18.5 kmh 29.49 in998.6 mb - 0.00 in0.0 mm 0.06 in1.5 mm
06:30 PM 39.5°F4.2°C 28.3°F-2.1°C 64% 6.9 mph N11.1 kmh N 9.2 mph14.8 kmh 29.50 in999.0 mb - 0.00 in0.0 mm 0.06 in1.5 mm
06:40 PM 39.2°F4.0°C 28.4°F-2.0°C 65% 8.1 mph N13.0 kmh N 9.2 mph14.8 kmh 29.51 in999.3 mb - 0.00 in0.0 mm 0.06 in1.5 mm
06:50 PM 39.4°F4.1°C 27.9°F-2.3°C 63% 8.1 mph N13.0 kmh N 11.5 mph18.5 kmh 29.52 in999.7 mb - 0.00 in0.0 mm 0.06 in1.5 mm
07:00 PM 39.9°F4.4°C 27.9°F-2.3°C 62% 12.7 mph N20.4 kmh N 15.0 mph24.1 kmh 29.53 in1000.0 mb - 0.00 in0.0 mm 0.06 in1.5 mm
07:10 PM 40.0°F4.4°C 26.8°F-2.9°C 59% 10.4 mph NNW16.7 kmh NNW 12.7 mph20.4 kmh 29.55 in1000.7 mb - 0.00 in0.0 mm 0.06 in1.5 mm
07:20 PM 39.7°F4.3°C 26.5°F-3.1°C 59% 9.2 mph N14.8 kmh N 12.7 mph20.4 kmh 29.56 in1001.0 mb - 0.00 in0.0 mm 0.06 in1.5 mm
07:30 PM 39.6°F4.2°C 26.8°F-2.9°C 60% 9.2 mph N14.8 kmh N 11.5 mph18.5 kmh 29.57 in1001.4 mb - 0.00 in0.0 mm 0.06 in1.5 mm
07:40 PM 39.5°F4.2°C 27.1°F-2.7°C 61% 9.2 mph N14.8 kmh N 17.3 mph27.8 kmh 29.58 in1001.7 mb - 0.00 in0.0 mm 0.06 in1.5 mm
07:50 PM 39.7°F4.3°C 27.7°F-2.4°C 62% 10.4 mph 16.7 kmh 12.7 mph20.4 kmh 29.59 in1002.0 mb - 0.00 in0.0 mm 0.06 in1.5 mm
08:00 PM 39.9°F4.4°C 27.5°F-2.5°C 61% 12.7 mph N20.4 kmh N 15.0 mph24.1 kmh 29.60 in1002.4 mb - 0.00 in0.0 mm 0.06 in1.5 mm
08:10 PM 40.0°F4.4°C 28.0°F-2.2°C 62% 12.7 mph N20.4 kmh N 15.0 mph24.1 kmh 29.61 in1002.7 mb - 0.00 in0.0 mm 0.06 in1.5 mm
08:20 PM 40.1°F4.5°C 26.9°F-2.8°C 59% 16.1 mph N25.9 kmh N 16.1 mph25.9 kmh 29.62 in1003.0 mb - 0.00 in0.0 mm 0.06 in1.5 mm
08:30 PM 40.1°F4.5°C 27.7°F-2.4°C 61% 9.2 mph NNE14.8 kmh NNE 11.5 mph18.5 kmh 29.63 in1003.4 mb - 0.00 in0.0 mm 0.06 in1.5 mm
08:40 PM 40.1°F4.5°C 28.1°F-2.2°C 62% 8.1 mph NNE13.0 kmh NNE 11.5 mph18.5 kmh 29.64 in1003.7 mb - 0.00 in0.0 mm 0.06 in1.5 mm
08:50 PM 40.0°F4.4°C 27.6°F-2.4°C 61% 6.9 mph NNE11.1 kmh NNE 8.1 mph13.0 kmh 29.65 in1004.1 mb - 0.00 in0.0 mm 0.06 in1.5 mm
09:00 PM 39.9°F4.4°C 27.9°F-2.3°C 62% 9.2 mph NNE14.8 kmh NNE 9.2 mph14.8 kmh 29.65 in1004.1 mb - 0.00 in0.0 mm 0.06 in1.5 mm
09:10 PM 39.8°F4.3°C 27.4°F-2.6°C 61% 10.4 mph N16.7 kmh N 11.5 mph18.5 kmh 29.66 in1004.4 mb - 0.00 in0.0 mm 0.06 in1.5 mm
09:20 PM 39.6°F4.2°C 27.2°F-2.7°C 61% 11.5 mph N18.5 kmh N 12.7 mph20.4 kmh 29.66 in1004.4 mb - 0.00 in0.0 mm 0.06 in1.5 mm
09:30 PM 39.7°F4.3°C 28.1°F-2.2°C 63% 12.7 mph N20.4 kmh N 15.0 mph24.1 kmh 29.67 in1004.7 mb - 0.00 in0.0 mm 0.06 in1.5 mm
09:40 PM 39.4°F4.1°C 27.5°F-2.5°C 62% 11.5 mph N18.5 kmh N 12.7 mph20.4 kmh 29.68 in1005.1 mb - 0.00 in0.0 mm 0.06 in1.5 mm
09:50 PM 39.2°F4.0°C 27.3°F-2.6°C 62% 11.5 mph N18.5 kmh N 13.8 mph22.2 kmh 29.68 in1005.1 mb - 0.00 in0.0 mm 0.06 in1.5 mm
10:00 PM 39.0°F3.9°C 26.3°F-3.2°C 60% 11.5 mph N18.5 kmh N 16.1 mph25.9 kmh 29.69 in1005.4 mb - 0.00 in0.0 mm 0.06 in1.5 mm
10:10 PM 39.0°F3.9°C 26.3°F-3.2°C 60% 11.5 mph NNW18.5 kmh NNW 16.1 mph25.9 kmh 29.69 in1005.4 mb - 0.00 in0.0 mm 0.06 in1.5 mm
10:20 PM 39.0°F3.9°C 26.2°F-3.2°C 60% 13.8 mph NNW22.2 kmh NNW 18.4 mph29.6 kmh 29.70 in1005.8 mb - 0.00 in0.0 mm 0.06 in1.5 mm
10:30 PM 39.0°F3.9°C 26.7°F-2.9°C 61% 12.7 mph NNW20.4 kmh NNW 17.3 mph27.8 kmh 29.71 in1006.1 mb - 0.00 in0.0 mm 0.06 in1.5 mm
10:40 PM 39.2°F4.0°C 27.7°F-2.4°C 63% 11.5 mph N18.5 kmh N 17.3 mph27.8 kmh 29.72 in1006.4 mb - 0.00 in0.0 mm 0.06 in1.5 mm
10:50 PM 39.0°F3.9°C 27.1°F-2.7°C 62% 13.8 mph N22.2 kmh N 19.6 mph31.5 kmh 29.73 in1006.8 mb - 0.00 in0.0 mm 0.06 in1.5 mm
11:00 PM 38.9°F3.8°C 26.6°F-3.0°C 61% 13.8 mph N22.2 kmh N 17.3 mph27.8 kmh 29.74 in1007.1 mb - 0.00 in0.0 mm 0.06 in1.5 mm
11:10 PM 38.8°F3.8°C 27.7°F-2.4°C 64% 12.7 mph N20.4 kmh N 17.3 mph27.8 kmh 29.74 in1007.1 mb - 0.00 in0.0 mm 0.06 in1.5 mm
11:20 PM 38.9°F3.8°C 27.8°F-2.3°C 64% 13.8 mph N22.2 kmh N 19.6 mph31.5 kmh 29.75 in1007.5 mb - 0.00 in0.0 mm 0.06 in1.5 mm
11:30 PM 38.7°F3.7°C 28.3°F-2.1°C 66% 12.7 mph N20.4 kmh N 16.1 mph25.9 kmh 29.76 in1007.8 mb - 0.00 in0.0 mm 0.06 in1.5 mm
11:40 PM 38.6°F3.7°C 27.5°F-2.5°C 64% 11.5 mph 18.5 kmh 13.8 mph22.2 kmh 29.77 in1008.1 mb - 0.00 in0.0 mm 0.06 in1.5 mm
11:50 PM 38.6°F3.7°C 27.8°F-2.3°C 65% 9.2 mph N14.8 kmh N 11.5 mph18.5 kmh 29.78 in1008.5 mb - 0.00 in0.0 mm 0.06 in1.5 mm